sensor_id;sensor_type;location;lat;lon;timestamp;pressure;altitude;pressure_sealevel;temperature;humidity
21869;BME280;11099;41.564;23.296;2022-08-19T00:01:47;97219.75;;;27.26;42.51
21869;BME280;11099;41.564;23.296;2022-08-19T00:04:15;97209.91;;;27.28;42.23
21869;BME280;11099;41.564;23.296;2022-08-19T00:06:43;97205.53;;;27.15;42.71
21869;BME280;11099;41.564;23.296;2022-08-19T00:09:11;97110.59;;;26.63;42.23
21869;BME280;11099;41.564;23.296;2022-08-19T00:11:38;97140.47;;;27.10;41.73
21869;BME280;11099;41.564;23.296;2022-08-19T00:14:05;97208.34;;;27.47;41.74
21869;BME280;11099;41.564;23.296;2022-08-19T00:16:32;97200.97;;;27.44;41.87
21869;BME280;11099;41.564;23.296;2022-08-19T00:18:58;97200.44;;;27.33;42.27
21869;BME280;11099;41.564;23.296;2022-08-19T00:21:24;97060.50;;;26.13;42.40
21869;BME280;11099;41.564;23.296;2022-08-19T00:23:51;97200.91;;;27.12;42.61
21869;BME280;11099;41.564;23.296;2022-08-19T00:26:16;97139.16;;;26.78;42.29
21869;BME280;11099;41.564;23.296;2022-08-19T00:28:42;97172.41;;;26.93;42.20
21869;BME280;11099;41.564;23.296;2022-08-19T00:31:08;97203.91;;;27.17;42.26
21869;BME280;11099;41.564;23.296;2022-08-19T00:33:34;97095.56;;;26.55;42.14
21869;BME280;11099;41.564;23.296;2022-08-19T00:36:01;97195.31;;;27.35;41.89
21869;BME280;11099;41.564;23.296;2022-08-19T00:38:29;97199.47;;;27.23;42.32
21869;BME280;11099;41.564;23.296;2022-08-19T00:40:55;97197.84;;;27.10;42.37
21869;BME280;11099;41.564;23.296;2022-08-19T00:43:23;97198.44;;;27.17;42.55
21869;BME280;11099;41.564;23.296;2022-08-19T00:45:49;97200.56;;;26.90;42.87
21869;BME280;11099;41.564;23.296;2022-08-19T00:48:16;97122.00;;;26.38;42.96
21869;BME280;11099;41.564;23.296;2022-08-19T00:50:42;97203.06;;;26.80;43.00
21869;BME280;11099;41.564;23.296;2022-08-19T00:53:11;97117.34;;;26.15;43.07
21869;BME280;11099;41.564;23.296;2022-08-19T00:55:38;97214.78;;;26.61;43.63
21869;BME280;11099;41.564;23.296;2022-08-19T00:58:08;97108.50;;;25.87;43.73
21869;BME280;11099;41.564;23.296;2022-08-19T01:00:35;97204.84;;;26.71;43.64
21869;BME280;11099;41.564;23.296;2022-08-19T01:03:07;97184.69;;;26.65;43.71
21869;BME280;11099;41.564;23.296;2022-08-19T01:05:34;97184.50;;;26.52;43.83
21869;BME280;11099;41.564;23.296;2022-08-19T01:08:02;97181.72;;;26.56;43.67
21869;BME280;11099;41.564;23.296;2022-08-19T01:10:32;97132.97;;;26.34;43.82
21869;BME280;11099;41.564;23.296;2022-08-19T01:13:00;97071.31;;;25.97;43.33
21869;BME280;11099;41.564;23.296;2022-08-19T01:15:31;97186.13;;;26.69;43.56
21869;BME280;11099;41.564;23.296;2022-08-19T01:18:00;97190.69;;;26.76;43.52
21869;BME280;11099;41.564;23.296;2022-08-19T01:20:26;97173.91;;;26.34;44.14
21869;BME280;11099;41.564;23.296;2022-08-19T01:22:55;97140.38;;;26.14;44.45
21869;BME280;11099;41.564;23.296;2022-08-19T01:25:26;97117.41;;;25.91;44.26
21869;BME280;11099;41.564;23.296;2022-08-19T01:27:53;97095.53;;;25.71;44.50
21869;BME280;11099;41.564;23.296;2022-08-19T01:30:26;97182.16;;;26.31;44.77
21869;BME280;11099;41.564;23.296;2022-08-19T01:32:53;97118.97;;;25.65;45.71
21869;BME280;11099;41.564;23.296;2022-08-19T01:35:20;97170.03;;;26.12;45.31
21869;BME280;11099;41.564;23.296;2022-08-19T01:37:58;97143.72;;;26.01;45.44
21869;BME280;11099;41.564;23.296;2022-08-19T01:40:31;97175.03;;;26.37;45.02
21869;BME280;11099;41.564;23.296;2022-08-19T01:42:57;97177.66;;;26.20;45.60
21869;BME280;11099;41.564;23.296;2022-08-19T01:45:25;97178.03;;;26.22;46.33
21869;BME280;11099;41.564;23.296;2022-08-19T01:47:51;97159.97;;;26.28;46.00
21869;BME280;11099;41.564;23.296;2022-08-19T01:50:16;97113.66;;;26.25;45.13
21869;BME280;11099;41.564;23.296;2022-08-19T01:52:43;97100.97;;;26.15;44.84
21869;BME280;11099;41.564;23.296;2022-08-19T01:55:15;97182.59;;;26.29;45.81
21869;BME280;11099;41.564;23.296;2022-08-19T01:57:44;97188.50;;;26.24;45.90
21869;BME280;11099;41.564;23.296;2022-08-19T02:00:14;97189.19;;;26.08;46.14
21869;BME280;11099;41.564;23.296;2022-08-19T02:02:41;97149.53;;;25.80;46.37
21869;BME280;11099;41.564;23.296;2022-08-19T02:05:07;97137.44;;;25.54;46.87
21869;BME280;11099;41.564;23.296;2022-08-19T02:07:35;97075.00;;;24.89;47.66
21869;BME280;11099;41.564;23.296;2022-08-19T02:10:08;97190.94;;;25.71;47.45
21869;BME280;11099;41.564;23.296;2022-08-19T02:12:35;97125.72;;;25.07;47.80
21869;BME280;11099;41.564;23.296;2022-08-19T02:15:00;97186.31;;;25.41;48.17
21869;BME280;11099;41.564;23.296;2022-08-19T02:17:29;97089.25;;;24.70;48.31
21869;BME280;11099;41.564;23.296;2022-08-19T02:19:58;97153.19;;;25.16;47.87
21869;BME280;11099;41.564;23.296;2022-08-19T02:22:24;97201.00;;;25.47;47.88
21869;BME280;11099;41.564;23.296;2022-08-19T02:24:51;97202.81;;;25.58;47.72
21869;BME280;11099;41.564;23.296;2022-08-19T02:27:17;97199.03;;;25.79;47.50
21869;BME280;11099;41.564;23.296;2022-08-19T02:29:43;97168.09;;;25.38;47.69
21869;BME280;11099;41.564;23.296;2022-08-19T02:32:10;97198.41;;;25.40;48.53
21869;BME280;11099;41.564;23.296;2022-08-19T02:34:36;97150.59;;;25.36;47.62
21869;BME280;11099;41.564;23.296;2022-08-19T02:37:02;97195.28;;;25.65;48.01
21869;BME280;11099;41.564;23.296;2022-08-19T02:39:27;97125.28;;;24.78;49.23
21869;BME280;11099;41.564;23.296;2022-08-19T02:41:53;97141.44;;;25.49;48.00
21869;BME280;11099;41.564;23.296;2022-08-19T02:44:18;97132.25;;;25.63;47.50
21869;BME280;11099;41.564;23.296;2022-08-19T02:46:46;97150.78;;;25.48;48.28
21869;BME280;11099;41.564;23.296;2022-08-19T02:49:12;97133.97;;;25.54;48.16
21869;BME280;11099;41.564;23.296;2022-08-19T02:51:40;97177.69;;;25.70;48.87
21869;BME280;11099;41.564;23.296;2022-08-19T02:54:07;97154.31;;;24.88;50.67
21869;BME280;11099;41.564;23.296;2022-08-19T02:56:38;97160.72;;;25.08;50.91
21869;BME280;11099;41.564;23.296;2022-08-19T02:59:04;97188.75;;;24.71;52.63
21869;BME280;11099;41.564;23.296;2022-08-19T03:01:34;97203.63;;;24.97;51.17
21869;BME280;11099;41.564;23.296;2022-08-19T03:04:03;97203.97;;;24.68;51.59
21869;BME280;11099;41.564;23.296;2022-08-19T03:06:30;97134.69;;;24.39;51.49
21869;BME280;11099;41.564;23.296;2022-08-19T03:08:56;97197.19;;;24.84;51.38
21869;BME280;11099;41.564;23.296;2022-08-19T03:13:49;97197.31;;;25.04;50.50
21869;BME280;11099;41.564;23.296;2022-08-19T03:16:26;97062.56;;;23.48;52.61
21869;BME280;11099;41.564;23.296;2022-08-19T03:18:53;97202.94;;;24.14;53.26
21869;BME280;11099;41.564;23.296;2022-08-19T03:21:21;97220.34;;;24.20;53.43
21869;BME280;11099;41.564;23.296;2022-08-19T03:23:48;97222.09;;;24.44;52.78
21869;BME280;11099;41.564;23.296;2022-08-19T03:26:14;97217.56;;;24.68;51.92
21869;BME280;11099;41.564;23.296;2022-08-19T03:28:41;97216.16;;;24.57;52.44
21869;BME280;11099;41.564;23.296;2022-08-19T03:31:11;97173.81;;;24.11;52.93
21869;BME280;11099;41.564;23.296;2022-08-19T03:33:38;97144.28;;;24.13;52.13
21869;BME280;11099;41.564;23.296;2022-08-19T03:38:42;97232.09;;;24.55;52.11
21869;BME280;11099;41.564;23.296;2022-08-19T03:41:11;97240.47;;;24.71;51.34
21869;BME280;11099;41.564;23.296;2022-08-19T03:43:39;97243.47;;;24.84;50.94
21869;BME280;11099;41.564;23.296;2022-08-19T03:46:07;97246.25;;;24.77;50.95
21869;BME280;11099;41.564;23.296;2022-08-19T03:48:35;97246.38;;;25.00;50.43
21869;BME280;11099;41.564;23.296;2022-08-19T03:51:01;97245.38;;;24.83;50.41
21869;BME280;11099;41.564;23.296;2022-08-19T03:53:28;97166.22;;;24.36;50.82
21869;BME280;11099;41.564;23.296;2022-08-19T03:55:55;97260.47;;;24.91;51.02
21869;BME280;11099;41.564;23.296;2022-08-19T03:58:22;97257.00;;;25.25;50.17
21869;BME280;11099;41.564;23.296;2022-08-19T04:00:48;97151.00;;;24.42;50.92
21869;BME280;11099;41.564;23.296;2022-08-19T04:03:14;97209.09;;;24.93;50.35
21869;BME280;11099;41.564;23.296;2022-08-19T04:05:39;97185.34;;;24.67;50.87
21869;BME280;11099;41.564;23.296;2022-08-19T04:08:05;97246.97;;;25.18;50.72
21869;BME280;11099;41.564;23.296;2022-08-19T04:10:35;97226.34;;;24.83;51.15
21869;BME280;11099;41.564;23.296;2022-08-19T04:13:01;97250.44;;;24.85;51.69
21869;BME280;11099;41.564;23.296;2022-08-19T04:15:27;97211.06;;;24.59;51.80
21869;BME280;11099;41.564;23.296;2022-08-19T04:17:56;97238.72;;;24.54;52.31
21869;BME280;11099;41.564;23.296;2022-08-19T04:20:21;97061.38;;;23.49;51.62
21869;BME280;11099;41.564;23.296;2022-08-19T04:22:47;97225.63;;;24.79;51.24
21869;BME280;11099;41.564;23.296;2022-08-19T04:25:13;97135.97;;;24.27;50.94
21869;BME280;11099;41.564;23.296;2022-08-19T04:27:38;97236.31;;;24.59;52.08
21869;BME280;11099;41.564;23.296;2022-08-19T04:30:04;97135.06;;;24.03;51.95
21869;BME280;11099;41.564;23.296;2022-08-19T04:32:30;97264.72;;;24.58;52.75
21869;BME280;11099;41.564;23.296;2022-08-19T04:34:57;97186.94;;;24.61;51.40
21869;BME280;11099;41.564;23.296;2022-08-19T04:37:24;97246.19;;;25.75;48.68
21869;BME280;11099;41.564;23.296;2022-08-19T04:39:51;97265.34;;;25.68;49.56
21869;BME280;11099;41.564;23.296;2022-08-19T04:42:36;97248.97;;;25.72;49.13
21869;BME280;11099;41.564;23.296;2022-08-19T04:45:10;97261.75;;;26.02;48.40
21869;BME280;11099;41.564;23.296;2022-08-19T04:47:37;97237.03;;;25.62;48.98
21869;BME280;11099;41.564;23.296;2022-08-19T04:50:04;97152.47;;;25.66;47.46
21869;BME280;11099;41.564;23.296;2022-08-19T04:52:29;97221.94;;;25.54;48.85
21869;BME280;11099;41.564;23.296;2022-08-19T04:54:56;97177.63;;;25.77;47.55
21869;BME280;11099;41.564;23.296;2022-08-19T04:57:22;97246.84;;;27.37;45.20
21869;BME280;11099;41.564;23.296;2022-08-19T04:59:48;97279.56;;;27.00;45.74
21869;BME280;11099;41.564;23.296;2022-08-19T05:02:14;97259.75;;;27.16;45.19
21869;BME280;11099;41.564;23.296;2022-08-19T05:04:39;97244.63;;;27.84;43.79
21869;BME280;11099;41.564;23.296;2022-08-19T05:07:06;97177.34;;;27.18;43.68
21869;BME280;11099;41.564;23.296;2022-08-19T05:09:32;97229.41;;;27.47;45.14
21869;BME280;11099;41.564;23.296;2022-08-19T05:11:58;97219.84;;;28.82;42.83
21869;BME280;11099;41.564;23.296;2022-08-19T05:14:23;97228.50;;;29.22;41.44
21869;BME280;11099;41.564;23.296;2022-08-19T05:16:49;97258.78;;;28.60;40.81
21869;BME280;11099;41.564;23.296;2022-08-19T05:19:15;97205.13;;;27.85;41.65
21869;BME280;11099;41.564;23.296;2022-08-19T05:22:00;97256.31;;;28.17;42.29
21869;BME280;11099;41.564;23.296;2022-08-19T05:24:44;97280.09;;;29.40;40.17
21869;BME280;11099;41.564;23.296;2022-08-19T05:27:09;97252.84;;;29.62;39.33
21869;BME280;11099;41.564;23.296;2022-08-19T05:29:35;97252.41;;;29.22;40.64
21869;BME280;11099;41.564;23.296;2022-08-19T05:32:03;97299.06;;;29.47;39.69
21869;BME280;11099;41.564;23.296;2022-08-19T05:34:30;97285.06;;;29.16;41.00
21869;BME280;11099;41.564;23.296;2022-08-19T05:36:59;97207.97;;;27.81;43.28
21869;BME280;11099;41.564;23.296;2022-08-19T05:39:28;97286.81;;;28.81;42.47
21869;BME280;11099;41.564;23.296;2022-08-19T05:41:57;97260.09;;;29.14;41.24
21869;BME280;11099;41.564;23.296;2022-08-19T05:44:24;97235.81;;;28.71;42.10
21869;BME280;11099;41.564;23.296;2022-08-19T05:46:51;97288.75;;;28.97;42.00
21869;BME280;11099;41.564;23.296;2022-08-19T05:49:21;97293.72;;;29.02;41.98
21869;BME280;11099;41.564;23.296;2022-08-19T05:51:48;97272.75;;;29.50;40.21
21869;BME280;11099;41.564;23.296;2022-08-19T05:54:13;97187.31;;;29.51;39.16
21869;BME280;11099;41.564;23.296;2022-08-19T05:56:40;97226.44;;;30.15;38.70
21869;BME280;11099;41.564;23.296;2022-08-19T05:59:07;97270.50;;;30.47;38.88
21869;BME280;11099;41.564;23.296;2022-08-19T06:01:42;97282.06;;;30.41;39.15
21869;BME280;11099;41.564;23.296;2022-08-19T06:04:08;97295.63;;;30.58;38.35
21869;BME280;11099;41.564;23.296;2022-08-19T06:06:34;97276.50;;;29.94;39.08
21869;BME280;11099;41.564;23.296;2022-08-19T06:09:05;97286.97;;;29.32;40.69
21869;BME280;11099;41.564;23.296;2022-08-19T06:11:35;97230.78;;;29.78;39.34
21869;BME280;11099;41.564;23.296;2022-08-19T06:14:04;97285.16;;;30.05;39.06
21869;BME280;11099;41.564;23.296;2022-08-19T06:16:30;97237.84;;;30.61;37.97
21869;BME280;11099;41.564;23.296;2022-08-19T06:18:59;97298.28;;;31.71;36.45
21869;BME280;11099;41.564;23.296;2022-08-19T06:21:27;97288.34;;;32.14;35.94
21869;BME280;11099;41.564;23.296;2022-08-19T06:23:55;97291.94;;;32.33;35.53
21869;BME280;11099;41.564;23.296;2022-08-19T06:26:21;97233.91;;;31.59;35.85
21869;BME280;11099;41.564;23.296;2022-08-19T06:28:47;97293.84;;;32.54;35.20
21869;BME280;11099;41.564;23.296;2022-08-19T06:31:21;97202.25;;;32.04;34.94
21869;BME280;11099;41.564;23.296;2022-08-19T06:33:48;97285.94;;;32.16;35.20
21869;BME280;11099;41.564;23.296;2022-08-19T06:36:23;97295.19;;;32.40;35.21
21869;BME280;11099;41.564;23.296;2022-08-19T06:38:53;97301.19;;;32.08;35.39
21869;BME280;11099;41.564;23.296;2022-08-19T06:41:19;97248.41;;;31.60;35.83
21869;BME280;11099;41.564;23.296;2022-08-19T06:43:44;97225.34;;;31.66;35.49
21869;BME280;11099;41.564;23.296;2022-08-19T06:46:15;97263.09;;;31.35;36.25
21869;BME280;11099;41.564;23.296;2022-08-19T06:48:41;97305.97;;;32.16;35.73
21869;BME280;11099;41.564;23.296;2022-08-19T06:51:07;97275.81;;;32.04;35.70
21869;BME280;11099;41.564;23.296;2022-08-19T06:53:33;97298.53;;;31.86;36.62
21869;BME280;11099;41.564;23.296;2022-08-19T06:55:59;97229.28;;;31.96;35.35
21869;BME280;11099;41.564;23.296;2022-08-19T06:58:31;97210.16;;;31.21;36.65
21869;BME280;11099;41.564;23.296;2022-08-19T07:01:01;97298.13;;;31.65;36.69
21869;BME280;11099;41.564;23.296;2022-08-19T07:03:33;97272.13;;;31.35;36.59
21869;BME280;11099;41.564;23.296;2022-08-19T07:06:12;97257.59;;;32.06;35.75
21869;BME280;11099;41.564;23.296;2022-08-19T07:08:40;97290.91;;;32.39;35.50
21869;BME280;11099;41.564;23.296;2022-08-19T07:11:11;97293.81;;;32.63;35.25
21869;BME280;11099;41.564;23.296;2022-08-19T07:13:38;97285.91;;;32.93;34.55
21869;BME280;11099;41.564;23.296;2022-08-19T07:16:08;97275.16;;;32.76;34.67
21869;BME280;11099;41.564;23.296;2022-08-19T07:18:35;97263.19;;;33.07;34.13
21869;BME280;11099;41.564;23.296;2022-08-19T07:21:05;97281.72;;;33.16;33.48
21869;BME280;11099;41.564;23.296;2022-08-19T07:23:31;97282.63;;;33.22;33.46
21869;BME280;11099;41.564;23.296;2022-08-19T07:25:57;97291.38;;;33.11;33.54
21869;BME280;11099;41.564;23.296;2022-08-19T07:28:23;97265.50;;;32.72;33.90
21869;BME280;11099;41.564;23.296;2022-08-19T07:30:49;97251.13;;;32.59;34.12
21869;BME280;11099;41.564;23.296;2022-08-19T07:33:16;97224.91;;;32.26;34.43
21869;BME280;11099;41.564;23.296;2022-08-19T07:35:43;97227.97;;;32.29;34.33
21869;BME280;11099;41.564;23.296;2022-08-19T07:38:09;97239.94;;;32.62;34.33
21869;BME280;11099;41.564;23.296;2022-08-19T07:40:35;97298.13;;;33.10;33.20
21869;BME280;11099;41.564;23.296;2022-08-19T07:43:01;97244.50;;;33.02;32.78
21869;BME280;11099;41.564;23.296;2022-08-19T07:45:26;97237.31;;;33.14;32.46
21869;BME280;11099;41.564;23.296;2022-08-19T07:47:54;97287.34;;;33.40;33.25
21869;BME280;11099;41.564;23.296;2022-08-19T07:50:20;97239.16;;;32.52;33.03
21869;BME280;11099;41.564;23.296;2022-08-19T07:52:47;97148.53;;;31.99;34.43
21869;BME280;11099;41.564;23.296;2022-08-19T07:55:16;97228.16;;;32.43;33.57
21869;BME280;11099;41.564;23.296;2022-08-19T07:57:42;97206.25;;;32.40;33.48
21869;BME280;11099;41.564;23.296;2022-08-19T08:00:08;97296.59;;;33.00;33.46
21869;BME280;11099;41.564;23.296;2022-08-19T08:02:34;97258.94;;;32.69;34.11
21869;BME280;11099;41.564;23.296;2022-08-19T08:04:59;97224.25;;;32.04;34.53
21869;BME280;11099;41.564;23.296;2022-08-19T08:07:43;97236.38;;;32.16;34.57
21869;BME280;11099;41.564;23.296;2022-08-19T08:10:27;97228.25;;;32.31;34.30
21869;BME280;11099;41.564;23.296;2022-08-19T08:12:53;97282.81;;;32.72;34.43
21869;BME280;11099;41.564;23.296;2022-08-19T08:15:19;97254.63;;;32.77;33.83
21869;BME280;11099;41.564;23.296;2022-08-19T08:17:45;97272.72;;;32.97;34.06
21869;BME280;11099;41.564;23.296;2022-08-19T08:20:11;97285.41;;;32.85;33.95
21869;BME280;11099;41.564;23.296;2022-08-19T08:22:43;97242.22;;;32.73;34.03
21869;BME280;11099;41.564;23.296;2022-08-19T08:25:27;97265.34;;;33.12;33.89
21869;BME280;11099;41.564;23.296;2022-08-19T08:27:53;97232.75;;;32.92;34.13
21869;BME280;11099;41.564;23.296;2022-08-19T08:30:21;97282.50;;;33.16;34.66
21869;BME280;11099;41.564;23.296;2022-08-19T08:32:47;97216.34;;;32.61;34.04
21869;BME280;11099;41.564;23.296;2022-08-19T08:35:15;97189.28;;;32.60;34.06
21869;BME280;11099;41.564;23.296;2022-08-19T08:37:43;97245.16;;;32.97;34.37
21869;BME280;11099;41.564;23.296;2022-08-19T08:40:21;97276.41;;;32.94;35.13
21869;BME280;11099;41.564;23.296;2022-08-19T08:43:03;97184.53;;;32.42;34.77
21869;BME280;11099;41.564;23.296;2022-08-19T08:45:33;97270.25;;;32.99;35.16
21869;BME280;11099;41.564;23.296;2022-08-19T08:48:04;97271.13;;;33.42;34.25
21869;BME280;11099;41.564;23.296;2022-08-19T08:50:41;97266.09;;;33.73;33.59
21869;BME280;11099;41.564;23.296;2022-08-19T08:53:08;97234.13;;;33.58;33.81
21869;BME280;11099;41.564;23.296;2022-08-19T08:55:36;97166.91;;;33.27;34.15
21869;BME280;11099;41.564;23.296;2022-08-19T08:58:07;97258.28;;;34.05;33.75
21869;BME280;11099;41.564;23.296;2022-08-19T09:00:42;97236.69;;;33.61;33.51
21869;BME280;11099;41.564;23.296;2022-08-19T09:03:17;97212.22;;;33.54;33.72
21869;BME280;11099;41.564;23.296;2022-08-19T09:05:48;97251.72;;;34.26;33.50
21869;BME280;11099;41.564;23.296;2022-08-19T09:08:27;97169.63;;;34.03;32.58
21869;BME280;11099;41.564;23.296;2022-08-19T09:10:57;97197.53;;;34.29;32.48
21869;BME280;11099;41.564;23.296;2022-08-19T09:16:11;97226.63;;;32.61;34.43
21869;BME280;11099;41.564;23.296;2022-08-19T09:18:46;97170.53;;;33.52;33.34
21869;BME280;11099;41.564;23.296;2022-08-19T09:21:13;97208.59;;;34.29;32.93
21869;BME280;11099;41.564;23.296;2022-08-19T09:23:40;97174.56;;;33.99;32.76
21869;BME280;11099;41.564;23.296;2022-08-19T09:26:11;97224.19;;;34.32;31.96
21869;BME280;11099;41.564;23.296;2022-08-19T09:28:39;97193.03;;;33.83;32.69
21869;BME280;11099;41.564;23.296;2022-08-19T09:31:12;97183.03;;;34.19;32.28
21869;BME280;11099;41.564;23.296;2022-08-19T09:33:39;97184.69;;;34.41;32.32
21869;BME280;11099;41.564;23.296;2022-08-19T09:36:07;97136.44;;;34.12;31.90
21869;BME280;11099;41.564;23.296;2022-08-19T09:38:33;97221.28;;;34.74;32.28
21869;BME280;11099;41.564;23.296;2022-08-19T09:41:07;97210.25;;;34.89;32.07
21869;BME280;11099;41.564;23.296;2022-08-19T09:43:33;97207.88;;;34.19;32.14
21869;BME280;11099;41.564;23.296;2022-08-19T09:46:03;97185.69;;;34.28;32.20
21869;BME280;11099;41.564;23.296;2022-08-19T09:48:31;97112.41;;;34.03;31.97
21869;BME280;11099;41.564;23.296;2022-08-19T09:51:08;97202.31;;;35.26;31.10
21869;BME280;11099;41.564;23.296;2022-08-19T09:53:35;97193.78;;;35.59;30.54
21869;BME280;11099;41.564;23.296;2022-08-19T09:56:02;97152.75;;;35.58;30.24
21869;BME280;11099;41.564;23.296;2022-08-19T09:58:28;97127.72;;;35.67;29.96
21869;BME280;11099;41.564;23.296;2022-08-19T10:00:56;97180.72;;;35.95;30.39
21869;BME280;11099;41.564;23.296;2022-08-19T10:03:22;97129.09;;;35.57;29.86
21869;BME280;11099;41.564;23.296;2022-08-19T10:05:48;97116.53;;;35.26;29.94
21869;BME280;11099;41.564;23.296;2022-08-19T10:08:19;97172.13;;;35.58;29.62
21869;BME280;11099;41.564;23.296;2022-08-19T10:10:46;97162.25;;;35.72;29.53
21869;BME280;11099;41.564;23.296;2022-08-19T10:13:14;97162.13;;;35.60;30.23
21869;BME280;11099;41.564;23.296;2022-08-19T10:15:39;97154.63;;;35.87;29.12
21869;BME280;11099;41.564;23.296;2022-08-19T10:18:06;97066.22;;;34.93;29.26
21869;BME280;11099;41.564;23.296;2022-08-19T10:20:32;97132.66;;;35.98;28.93
21869;BME280;11099;41.564;23.296;2022-08-19T10:22:58;97138.38;;;36.15;28.64
21869;BME280;11099;41.564;23.296;2022-08-19T10:25:25;97137.28;;;36.07;28.97
21869;BME280;11099;41.564;23.296;2022-08-19T10:27:52;97133.13;;;35.97;28.64
21869;BME280;11099;41.564;23.296;2022-08-19T10:30:18;97102.09;;;35.93;28.43
21869;BME280;11099;41.564;23.296;2022-08-19T10:32:44;97142.25;;;36.23;28.47
21869;BME280;11099;41.564;23.296;2022-08-19T10:35:11;97112.06;;;35.64;28.81
21869;BME280;11099;41.564;23.296;2022-08-19T10:37:38;97134.53;;;36.53;28.33
21869;BME280;11099;41.564;23.296;2022-08-19T10:40:06;97126.41;;;36.76;28.07
21869;BME280;11099;41.564;23.296;2022-08-19T10:42:34;97137.25;;;37.00;27.54
21869;BME280;11099;41.564;23.296;2022-08-19T10:45:01;97126.41;;;36.76;27.36
21869;BME280;11099;41.564;23.296;2022-08-19T10:47:27;97123.31;;;36.94;26.83
21869;BME280;11099;41.564;23.296;2022-08-19T10:49:53;97129.41;;;36.72;27.26
21869;BME280;11099;41.564;23.296;2022-08-19T10:52:45;97121.66;;;36.50;27.42
21869;BME280;11099;41.564;23.296;2022-08-19T10:55:11;97081.66;;;36.36;27.47
21869;BME280;11099;41.564;23.296;2022-08-19T10:57:55;97047.25;;;36.43;27.07
21869;BME280;11099;41.564;23.296;2022-08-19T11:00:23;97080.47;;;36.69;26.28
21869;BME280;11099;41.564;23.296;2022-08-19T11:02:50;97062.78;;;36.61;25.94
21869;BME280;11099;41.564;23.296;2022-08-19T11:05:16;97106.31;;;36.86;25.65
21869;BME280;11099;41.564;23.296;2022-08-19T11:07:43;97109.75;;;37.02;25.52
21869;BME280;11099;41.564;23.296;2022-08-19T11:10:11;97108.13;;;37.21;25.29
21869;BME280;11099;41.564;23.296;2022-08-19T11:12:39;97095.91;;;37.39;24.22
21869;BME280;11099;41.564;23.296;2022-08-19T11:15:06;97105.34;;;37.21;26.05
21869;BME280;11099;41.564;23.296;2022-08-19T11:17:37;97053.56;;;36.44;26.25
21869;BME280;11099;41.564;23.296;2022-08-19T11:20:06;97021.34;;;36.26;25.61
21869;BME280;11099;41.564;23.296;2022-08-19T11:22:31;97059.28;;;36.66;25.92
21869;BME280;11099;41.564;23.296;2022-08-19T11:24:57;96975.13;;;36.11;25.98
21869;BME280;11099;41.564;23.296;2022-08-19T11:27:23;96983.88;;;36.62;25.27
21869;BME280;11099;41.564;23.296;2022-08-19T11:29:48;97040.22;;;36.79;25.64
21869;BME280;11099;41.564;23.296;2022-08-19T11:32:14;97034.94;;;36.81;25.12
21869;BME280;11099;41.564;23.296;2022-08-19T11:34:40;96994.06;;;36.76;25.24
21869;BME280;11099;41.564;23.296;2022-08-19T11:37:06;97078.09;;;37.68;24.49
21869;BME280;11099;41.564;23.296;2022-08-19T11:39:34;96974.81;;;36.61;25.57
21869;BME280;11099;41.564;23.296;2022-08-19T11:42:02;97070.47;;;37.52;24.70
21869;BME280;11099;41.564;23.296;2022-08-19T11:44:28;97059.97;;;37.78;24.24
21869;BME280;11099;41.564;23.296;2022-08-19T11:46:55;97038.75;;;37.21;25.05
21869;BME280;11099;41.564;23.296;2022-08-19T11:49:21;97023.91;;;37.30;25.35
21869;BME280;11099;41.564;23.296;2022-08-19T11:51:47;97046.75;;;37.56;25.32
21869;BME280;11099;41.564;23.296;2022-08-19T11:54:16;97038.28;;;37.28;25.76
21869;BME280;11099;41.564;23.296;2022-08-19T11:56:43;96979.81;;;36.95;25.40
21869;BME280;11099;41.564;23.296;2022-08-19T11:59:09;97012.88;;;37.47;25.78
21869;BME280;11099;41.564;23.296;2022-08-19T12:01:36;96994.78;;;37.08;26.08
21869;BME280;11099;41.564;23.296;2022-08-19T12:04:02;97025.06;;;36.43;26.88
21869;BME280;11099;41.564;23.296;2022-08-19T12:06:31;96965.91;;;35.94;27.33
21869;BME280;11099;41.564;23.296;2022-08-19T12:09:04;97007.03;;;36.90;26.91
21869;BME280;11099;41.564;23.296;2022-08-19T12:11:32;96955.97;;;36.39;26.80
21869;BME280;11099;41.564;23.296;2022-08-19T12:13:58;96957.06;;;36.48;26.49
21869;BME280;11099;41.564;23.296;2022-08-19T12:16:26;97014.56;;;36.53;26.28
21869;BME280;11099;41.564;23.296;2022-08-19T12:18:53;97006.31;;;36.96;26.75
21869;BME280;11099;41.564;23.296;2022-08-19T12:21:23;96946.44;;;36.83;26.67
21869;BME280;11099;41.564;23.296;2022-08-19T12:23:50;96895.38;;;36.58;26.17
21869;BME280;11099;41.564;23.296;2022-08-19T12:26:17;96988.81;;;37.27;26.27
21869;BME280;11099;41.564;23.296;2022-08-19T12:28:43;96948.41;;;36.72;25.73
21869;BME280;11099;41.564;23.296;2022-08-19T12:31:09;96990.75;;;37.09;26.28
21869;BME280;11099;41.564;23.296;2022-08-19T12:33:38;96944.34;;;36.67;26.22
21869;BME280;11099;41.564;23.296;2022-08-19T12:36:05;96974.91;;;37.21;26.01
21869;BME280;11099;41.564;23.296;2022-08-19T12:38:32;96981.81;;;36.88;26.55
21869;BME280;11099;41.564;23.296;2022-08-19T12:41:00;96966.97;;;36.97;26.92
21869;BME280;11099;41.564;23.296;2022-08-19T12:43:26;96849.53;;;35.88;27.24
21869;BME280;11099;41.564;23.296;2022-08-19T12:45:52;96877.16;;;35.83;27.50
21869;BME280;11099;41.564;23.296;2022-08-19T12:48:17;96944.34;;;36.67;27.31
21869;BME280;11099;41.564;23.296;2022-08-19T12:50:44;96886.63;;;36.34;27.85
21869;BME280;11099;41.564;23.296;2022-08-19T12:53:13;96942.25;;;36.93;27.09
21869;BME280;11099;41.564;23.296;2022-08-19T12:55:40;96947.59;;;37.08;26.96
21869;BME280;11099;41.564;23.296;2022-08-19T12:58:06;96919.69;;;36.80;27.71
21869;BME280;11099;41.564;23.296;2022-08-19T13:00:33;96940.38;;;36.79;27.29
21869;BME280;11099;41.564;23.296;2022-08-19T13:02:59;96948.63;;;36.68;27.40